Time;durP1;ratioP1;P1;durP2;ratioP2;P2;SDS_P1;SDS_P2;PMS_P1;PMS_P2;Temp;Humidity;BMP_temperature;BMP_pressure;BME280_temperature;BME280_humidity;BME280_pressure;Samples;Min_cycle;Max_cycle;Signal;HPM_P1;HPM_P2
2022/07/27 00:01:04;;;;;;;2.33;1.67;;;18.80;99.90;;;;;;4970710;28;20692;-71
2022/07/27 00:03:29;;;;;;;1.83;1.73;;;18.90;99.90;;;;;;4970757;28;20182;-74
2022/07/27 00:05:55;;;;;;;2.40;1.37;;;18.90;99.90;;;;;;4971309;28;20881;-74
2022/07/27 00:08:22;;;;;;;2.43;1.73;;;18.90;99.90;;;;;;4971235;28;20172;-74
2022/07/27 00:10:48;;;;;;;3.17;1.67;;;19.00;99.90;;;;;;4970531;28;20172;-74
2022/07/27 00:13:14;;;;;;;2.60;1.67;;;19.00;99.90;;;;;;4970619;28;20836;-76
2022/07/27 00:15:40;;;;;;;2.40;1.83;;;19.00;99.90;;;;;;4971129;28;20450;-75
2022/07/27 00:18:05;;;;;;;8.90;2.17;;;19.00;99.90;;;;;;4972713;28;20180;-74
2022/07/27 00:20:31;;;;;;;1.77;1.67;;;19.00;99.90;;;;;;4974534;28;20215;-74
2022/07/27 00:22:57;;;;;;;2.00;1.57;;;19.00;99.90;;;;;;4974222;28;20672;-74
2022/07/27 00:25:26;;;;;;;6.87;1.90;;;19.00;99.90;;;;;;4974699;28;20407;-73
2022/07/27 00:27:52;;;;;;;2.60;1.80;;;19.10;99.90;;;;;;4974175;28;20458;-74
2022/07/27 00:30:17;;;;;;;3.80;1.90;;;19.10;99.90;;;;;;4974538;28;20455;-74
2022/07/27 00:32:43;;;;;;;4.90;2.27;;;19.00;99.90;;;;;;4973584;28;20222;-74
2022/07/27 00:35:09;;;;;;;10.97;2.13;;;19.10;99.90;;;;;;4974597;28;20180;-75
2022/07/27 00:37:35;;;;;;;1.80;1.70;;;19.10;99.90;;;;;;4974421;28;20590;-74
2022/07/27 00:40:01;;;;;;;6.83;2.43;;;19.10;99.90;;;;;;4973630;28;20471;-74
2022/07/27 00:42:27;;;;;;;4.60;2.20;;;19.10;99.90;;;;;;4973907;28;20427;-74
2022/07/27 00:44:53;;;;;;;3.57;1.97;;;19.20;99.90;;;;;;4973973;28;20271;-75
2022/07/27 00:47:19;;;;;;;2.50;2.30;;;19.20;99.90;;;;;;4973331;28;20577;-76
2022/07/27 00:49:45;;;;;;;3.63;2.00;;;19.20;99.90;;;;;;4973934;28;20514;-75
2022/07/27 00:52:11;;;;;;;4.50;2.47;;;19.20;99.90;;;;;;4972639;28;20522;-74
2022/07/27 00:54:37;;;;;;;2.13;1.93;;;19.20;99.90;;;;;;4973397;28;20180;-75
2022/07/27 00:57:04;;;;;;;4.13;2.27;;;19.20;99.90;;;;;;4973932;28;20976;-75
2022/07/27 00:59:30;;;;;;;4.57;2.17;;;19.20;99.90;;;;;;4974092;28;20294;-74
2022/07/27 02:32:52;;;;;;;8.47;3.30;;;18.20;99.90;;;;;;5165052;23;20489;-76
2022/07/27 02:35:18;;;;;;;5.30;3.37;;;18.10;99.90;;;;;;4996342;28;20446;-76
2022/07/27 02:37:44;;;;;;;8.57;3.30;;;18.10;99.90;;;;;;5011131;28;20516;-74
2022/07/27 02:40:10;;;;;;;6.70;3.17;;;18.10;99.90;;;;;;5010539;28;20215;-77
2022/07/27 02:42:36;;;;;;;3.43;2.60;;;18.00;99.90;;;;;;4994163;28;20293;-77
2022/07/27 02:45:01;;;;;;;6.50;3.20;;;18.00;99.90;;;;;;4992277;28;20502;-76
2022/07/27 02:47:27;;;;;;;3.67;3.03;;;17.90;99.90;;;;;;4991506;28;20717;-76
2022/07/27 02:49:52;;;;;;;6.43;3.00;;;17.90;99.90;;;;;;4991925;28;20678;-76
2022/07/27 02:52:18;;;;;;;7.83;3.00;;;17.90;99.90;;;;;;4990538;28;20275;-76
2022/07/27 02:54:43;;;;;;;7.23;2.73;;;17.90;99.90;;;;;;4991330;28;20186;-73
2022/07/27 02:57:09;;;;;;;3.30;2.90;;;17.90;99.90;;;;;;4991479;28;20184;-76
2022/07/27 02:59:34;;;;;;;3.03;2.80;;;17.90;99.90;;;;;;4991307;28;20329;-77
2022/07/27 03:02:00;;;;;;;4.00;2.70;;;17.90;99.90;;;;;;4989639;28;20195;-76
2022/07/27 03:04:25;;;;;;;3.43;3.13;;;17.90;99.90;;;;;;4990481;28;20234;-76
2022/07/27 03:06:51;;;;;;;4.33;2.70;;;17.90;99.90;;;;;;4991525;28;20175;-77
2022/07/27 03:09:17;;;;;;;4.53;2.93;;;17.90;99.90;;;;;;4991125;28;20175;-76
2022/07/27 03:11:42;;;;;;;4.23;3.40;;;17.80;99.90;;;;;;4973330;28;20469;-76
2022/07/27 03:14:08;;;;;;;3.37;3.17;;;17.70;99.90;;;;;;4990474;28;20184;-76
2022/07/27 03:16:34;;;;;;;3.93;3.60;;;17.70;99.90;;;;;;4990968;28;20167;-76
2022/07/27 03:18:59;;;;;;;3.33;3.03;;;17.60;99.90;;;;;;4990844;28;20207;-74
2022/07/27 03:21:25;;;;;;;3.77;3.20;;;17.50;99.90;;;;;;4990303;28;20187;-75
2022/07/27 03:23:50;;;;;;;5.27;3.00;;;17.50;99.90;;;;;;4990794;28;20167;-76
2022/07/27 03:26:17;;;;;;;3.90;2.90;;;17.40;99.90;;;;;;4990539;28;20182;-75
2022/07/27 03:28:43;;;;;;;4.60;3.37;;;17.40;99.90;;;;;;4991060;28;20176;-73
2022/07/27 03:31:09;;;;;;;6.70;3.13;;;17.30;99.90;;;;;;4989893;28;20879;-76
2022/07/27 03:33:35;;;;;;;3.40;3.13;;;17.30;99.90;;;;;;4990529;28;20168;-77
2022/07/27 03:36:01;;;;;;;7.77;3.60;;;17.30;99.90;;;;;;4991091;28;20171;-76
2022/07/27 03:38:26;;;;;;;3.57;3.27;;;17.30;99.90;;;;;;4990542;28;20418;-73
2022/07/27 03:40:52;;;;;;;3.27;3.07;;;17.30;99.90;;;;;;4990145;28;20616;-73
2022/07/27 03:43:17;;;;;;;3.50;3.00;;;17.30;99.90;;;;;;4990612;28;20663;-73
2022/07/27 03:45:43;;;;;;;5.57;3.33;;;17.30;99.90;;;;;;4990446;28;20183;-71
2022/07/27 03:48:09;;;;;;;3.70;3.40;;;17.20;99.90;;;;;;4990865;28;20179;-73
2022/07/27 03:50:34;;;;;;;4.30;3.30;;;17.20;99.90;;;;;;4989493;28;20179;-71
2022/07/27 03:53:00;;;;;;;4.03;3.37;;;17.20;99.90;;;;;;4992201;28;20179;-75
2022/07/27 03:55:26;;;;;;;4.53;3.50;;;17.20;99.90;;;;;;4994884;28;20187;-73
2022/07/27 03:57:52;;;;;;;6.60;3.77;;;17.20;99.90;;;;;;4995483;28;20540;-73
2022/07/27 04:00:18;;;;;;;4.47;4.00;;;17.20;99.90;;;;;;4995513;28;20454;-73
2022/07/27 04:02:44;;;;;;;5.33;3.73;;;17.20;99.90;;;;;;4994017;28;20517;-71
2022/07/27 04:05:10;;;;;;;5.33;3.57;;;17.20;99.90;;;;;;4995773;28;20418;-74
2022/07/27 04:07:36;;;;;;;9.47;4.40;;;17.10;99.90;;;;;;4976403;28;20210;-73
2022/07/27 04:10:02;;;;;;;7.50;4.37;;;17.10;99.90;;;;;;4992675;28;20938;-74
2022/07/27 04:12:28;;;;;;;5.33;3.80;;;17.00;99.90;;;;;;4993905;28;20465;-71
2022/07/27 04:14:53;;;;;;;4.27;3.43;;;17.00;99.90;;;;;;4994490;28;20423;-75
2022/07/27 04:17:19;;;;;;;6.00;4.37;;;17.00;99.90;;;;;;4994236;28;20222;-74
2022/07/27 04:19:44;;;;;;;8.13;4.10;;;17.00;99.90;;;;;;4994441;28;20199;-74
2022/07/27 04:22:10;;;;;;;5.83;4.20;;;17.10;99.90;;;;;;4993459;28;20199;-75
2022/07/27 04:24:35;;;;;;;4.50;3.37;;;17.10;99.90;;;;;;4993687;28;20179;-74
2022/07/27 04:27:01;;;;;;;5.10;4.70;;;17.20;99.90;;;;;;4994384;28;20171;-74
2022/07/27 04:29:27;;;;;;;5.60;4.67;;;17.20;99.90;;;;;;4993671;28;20179;-75
2022/07/27 04:31:52;;;;;;;4.50;4.07;;;17.20;99.90;;;;;;4993196;28;20230;-74
2022/07/27 04:34:18;;;;;;;6.80;4.53;;;17.30;99.90;;;;;;4993785;28;20438;-74
2022/07/27 04:36:44;;;;;;;4.73;4.30;;;17.40;99.90;;;;;;4993563;28;20254;-75
2022/07/27 04:39:09;;;;;;;4.50;4.10;;;17.40;99.90;;;;;;4993826;28;20458;-71
2022/07/27 04:41:35;;;;;;;4.03;3.73;;;17.40;99.90;;;;;;4993112;28;20195;-72
2022/07/27 04:44:00;;;;;;;7.67;4.10;;;17.50;99.90;;;;;;4993742;28;20202;-71
2022/07/27 04:46:28;;;;;;;5.60;4.23;;;17.60;99.90;;;;;;4992992;28;20179;-71
2022/07/27 04:48:54;;;;;;;6.63;4.40;;;17.60;99.90;;;;;;4993745;28;20176;-72
2022/07/27 04:51:20;;;;;;;7.00;4.13;;;17.60;99.90;;;;;;4992860;28;20857;-72
2022/07/27 04:53:45;;;;;;;4.17;3.77;;;17.60;99.90;;;;;;4993115;28;20452;-71
2022/07/27 04:56:11;;;;;;;5.83;4.53;;;17.70;99.90;;;;;;4993477;28;20521;-72
2022/07/27 04:58:36;;;;;;;5.30;4.17;;;17.80;99.90;;;;;;4993308;28;20183;-72
2022/07/27 05:01:02;;;;;;;4.07;3.77;;;17.90;99.90;;;;;;4992343;28;20275;-72
2022/07/27 05:03:28;;;;;;;4.37;4.00;;;17.90;99.90;;;;;;4992615;28;20597;-70
2022/07/27 05:05:54;;;;;;;5.07;4.10;;;17.90;99.90;;;;;;4993426;28;20481;-72
2022/07/27 05:08:20;;;;;;;10.60;4.50;;;17.90;99.90;;;;;;4993428;28;20184;-73
2022/07/27 05:10:46;;;;;;;8.53;4.90;;;17.90;99.90;;;;;;4992022;28;20254;-72
2022/07/27 05:13:11;;;;;;;6.13;4.37;;;17.90;99.90;;;;;;4993284;28;20422;-73
2022/07/27 05:15:38;;;;;;;5.43;4.10;;;18.00;99.90;;;;;;4993401;28;20431;-72
2022/07/27 05:18:04;;;;;;;6.40;4.40;;;18.00;99.90;;;;;;4993168;28;20191;-72
2022/07/27 05:20:29;;;;;;;6.63;4.13;;;18.00;99.90;;;;;;4992418;28;20465;-71
2022/07/27 05:22:55;;;;;;;5.60;3.83;;;18.10;99.90;;;;;;4992694;28;20955;-71
2022/07/27 05:25:24;;;;;;;5.13;4.63;;;18.10;99.90;;;;;;4992426;28;20728;-71
2022/07/27 05:27:50;;;;;;;11.63;4.43;;;18.20;99.90;;;;;;4992979;28;20167;-71
2022/07/27 05:30:15;;;;;;;10.10;4.67;;;18.20;99.90;;;;;;4992752;28;20481;-72
2022/07/27 05:32:41;;;;;;;6.50;4.90;;;18.30;99.90;;;;;;4991880;28;20458;-72
2022/07/27 05:35:07;;;;;;;6.63;4.20;;;18.30;99.90;;;;;;4993123;28;20187;-73
2022/07/27 05:37:32;;;;;;;5.00;4.03;;;18.30;99.90;;;;;;4983546;28;20472;-73
2022/07/27 05:39:58;;;;;;;5.43;4.53;;;18.30;99.90;;;;;;4986852;28;20643;-72
2022/07/27 05:42:23;;;;;;;4.90;4.13;;;18.30;99.90;;;;;;4989906;28;20234;-71
2022/07/27 05:44:53;;;;;;;4.40;4.00;;;18.50;99.90;;;;;;4990862;28;20620;-72
2022/07/27 05:47:19;;;;;;;4.53;4.10;;;18.50;99.90;;;;;;4990648;28;20190;-72
2022/07/27 05:49:45;;;;;;;4.90;4.20;;;18.60;99.90;;;;;;4990884;28;20426;-72
2022/07/27 05:52:10;;;;;;;9.50;3.87;;;18.60;99.90;;;;;;4990178;28;20225;-72
2022/07/27 05:54:35;;;;;;;8.13;4.10;;;18.80;99.90;;;;;;4987213;28;20237;-71
2022/07/27 05:57:01;;;;;;;6.13;4.10;;;18.90;99.90;;;;;;4990734;28;20664;-71
2022/07/27 05:59:28;;;;;;;6.93;4.33;;;18.90;99.90;;;;;;4990923;28;20219;-73
2022/07/27 06:01:53;;;;;;;6.97;3.83;;;18.90;99.90;;;;;;4991771;28;20571;-72
2022/07/27 06:04:19;;;;;;;4.30;4.00;;;19.00;99.90;;;;;;4990731;28;20915;-72
2022/07/27 06:09:29;;;;;;;4.50;4.10;;;19.20;99.90;;;;;;4992878;28;20218;-72
2022/07/27 06:11:55;;;;;;;4.17;3.77;;;19.30;99.90;;;;;;4991716;28;20453;-72
2022/07/27 06:14:20;;;;;;;6.63;5.17;;;19.40;99.90;;;;;;4992213;28;20418;-71
2022/07/27 06:16:46;;;;;;;7.20;5.33;;;19.40;99.90;;;;;;4991633;28;20196;-71
2022/07/27 06:19:11;;;;;;;4.20;3.97;;;19.40;99.90;;;;;;4991781;28;20543;-71
2022/07/27 06:21:37;;;;;;;4.90;4.10;;;19.50;99.90;;;;;;4990700;28;20203;-71
2022/07/27 06:24:02;;;;;;;5.80;3.90;;;19.60;99.90;;;;;;4992060;28;20632;-71
2022/07/27 06:26:28;;;;;;;5.03;3.90;;;19.70;99.90;;;;;;4992039;28;20182;-72
2022/07/27 06:28:57;;;;;;;8.00;4.60;;;19.80;99.90;;;;;;4991895;28;20728;-71
2022/07/27 06:31:24;;;;;;;6.17;4.77;;;19.80;99.90;;;;;;4991208;28;20210;-72
2022/07/27 06:33:50;;;;;;;4.30;4.00;;;19.80;99.90;;;;;;4991466;28;20510;-71
2022/07/27 06:36:15;;;;;;;3.90;3.60;;;19.90;99.90;;;;;;4992213;28;20498;-71
2022/07/27 06:38:41;;;;;;;9.33;4.77;;;20.00;99.90;;;;;;4991303;28;20172;-72
2022/07/27 06:41:06;;;;;;;4.30;3.87;;;20.10;99.90;;;;;;4991160;28;20625;-71
2022/07/27 06:43:32;;;;;;;6.97;4.30;;;20.20;99.90;;;;;;4991309;28;20227;-71
2022/07/27 06:45:58;;;;;;;4.80;3.90;;;20.30;99.90;;;;;;4992147;28;20198;-72
2022/07/27 06:48:27;;;;;;;4.83;4.53;;;20.30;99.90;;;;;;4991839;28;20227;-72
2022/07/27 06:50:52;;;;;;;5.30;4.07;;;20.40;99.90;;;;;;4990913;28;20473;-72
2022/07/27 06:53:18;;;;;;;3.67;3.47;;;20.20;99.90;;;;;;4991891;28;20410;-72
2022/07/27 06:55:44;;;;;;;4.20;3.80;;;20.30;99.90;;;;;;4991200;28;20172;-72
2022/07/27 06:58:11;;;;;;;4.10;3.90;;;20.30;99.90;;;;;;4991921;28;20414;-70
2022/07/27 07:00:38;;;;;;;4.33;4.03;;;20.30;99.90;;;;;;4990788;28;20199;-72
2022/07/27 07:03:04;;;;;;;4.73;4.27;;;20.30;99.90;;;;;;4991274;28;20509;-72
2022/07/27 07:05:32;;;;;;;3.47;3.20;;;20.30;99.90;;;;;;4990901;28;20461;-71
2022/07/27 07:07:59;;;;;;;4.10;3.80;;;20.30;99.90;;;;;;4991609;28;20480;-71
2022/07/27 07:10:26;;;;;;;7.70;5.03;;;20.50;99.90;;;;;;4991535;28;20791;-72
2022/07/27 07:12:56;;;;;;;4.27;3.87;;;20.70;99.90;;;;;;4990582;28;20986;-72
2022/07/27 07:15:24;;;;;;;5.23;4.67;;;20.80;99.90;;;;;;4990894;28;20505;-73
2022/07/27 07:17:49;;;;;;;5.90;4.37;;;20.90;99.90;;;;;;4991572;28;20796;-72
2022/07/27 07:20:15;;;;;;;6.20;4.30;;;21.00;99.90;;;;;;4991538;28;20457;-72
2022/07/27 07:22:41;;;;;;;9.13;3.80;;;21.10;99.90;;;;;;4990394;28;20467;-72
2022/07/27 07:25:07;;;;;;;4.30;3.90;;;21.10;99.90;;;;;;4991043;28;20528;-72
2022/07/27 07:27:33;;;;;;;4.57;4.07;;;21.20;99.90;;;;;;4990460;28;20182;-72
2022/07/27 07:29:59;;;;;;;7.40;4.00;;;21.20;99.90;;;;;;4991305;28;20546;-72
2022/07/27 07:32:25;;;;;;;4.40;3.97;;;21.30;99.90;;;;;;4991036;28;20466;-73
2022/07/27 07:34:51;;;;;;;5.43;5.03;;;21.40;99.90;;;;;;4991742;28;20418;-72
2022/07/27 07:37:17;;;;;;;3.93;3.63;;;21.50;99.90;;;;;;4991431;28;20179;-73
2022/07/27 07:39:43;;;;;;;4.53;3.73;;;21.50;99.90;;;;;;4991940;28;20450;-72
2022/07/27 07:42:08;;;;;;;4.33;3.63;;;21.70;99.90;;;;;;4991351;28;20870;-71
2022/07/27 07:44:34;;;;;;;5.00;4.43;;;21.80;99.90;;;;;;4991285;28;20199;-73
2022/07/27 07:46:59;;;;;;;15.83;3.87;;;21.90;99.90;;;;;;4991421;28;20172;-72
2022/07/27 07:49:25;;;;;;;4.37;3.77;;;22.00;99.90;;;;;;4991755;28;20554;-72
2022/07/27 07:51:51;;;;;;;4.07;3.60;;;22.10;99.90;;;;;;4990752;28;20234;-73
2022/07/27 07:54:16;;;;;;;4.17;3.47;;;22.20;99.90;;;;;;4990420;28;20180;-72
2022/07/27 07:56:42;;;;;;;8.53;4.17;;;22.30;99.90;;;;;;4989866;28;20655;-72
2022/07/27 07:59:07;;;;;;;8.37;4.33;;;22.20;99.90;;;;;;4990381;28;20214;-70
2022/07/27 08:01:33;;;;;;;5.57;3.87;;;21.90;99.90;;;;;;4990048;28;20812;-72
2022/07/27 08:03:58;;;;;;;4.77;4.30;;;22.10;99.90;;;;;;4990405;28;20187;-72
2022/07/27 08:06:24;;;;;;;4.90;3.43;;;22.20;99.90;;;;;;4990061;28;20175;-74
2022/07/27 08:08:50;;;;;;;13.23;3.60;;;21.80;99.90;;;;;;4990611;28;20175;-71
2022/07/27 08:11:15;;;;;;;3.07;2.97;;;22.10;99.90;;;;;;4991110;28;20203;-71
2022/07/27 08:13:41;;;;;;;5.10;3.90;;;22.20;99.90;;;;;;4991372;28;20226;-74
2022/07/27 08:16:06;;;;;;;5.93;4.00;;;22.20;99.90;;;;;;4991146;28;20172;-72
2022/07/27 08:18:32;;;;;;;4.53;4.13;;;22.00;99.90;;;;;;4990366;28;20258;-72
2022/07/27 08:20:57;;;;;;;4.63;3.60;;;22.10;99.90;;;;;;4990474;28;20213;-73
2022/07/27 08:23:23;;;;;;;9.17;7.40;;;22.30;99.90;;;;;;4990824;28;20260;-73
2022/07/27 08:25:48;;;;;;;4.20;4.00;;;22.50;99.90;;;;;;4990921;28;20261;-71
2022/07/27 08:28:14;;;;;;;4.37;3.97;;;22.70;99.90;;;;;;4990243;28;20179;-72
2022/07/27 08:30:40;;;;;;;4.33;4.03;;;22.60;99.90;;;;;;4990014;28;20191;-73
2022/07/27 08:33:05;;;;;;;3.60;3.33;;;23.00;99.90;;;;;;4990985;28;20214;-72
2022/07/27 08:35:33;;;;;;;6.80;3.57;;;23.40;99.90;;;;;;4972829;28;20206;-72
2022/07/27 08:37:59;;;;;;;6.97;4.30;;;23.40;99.90;;;;;;4990490;28;20179;-72
2022/07/27 08:40:25;;;;;;;13.23;4.03;;;23.50;99.90;;;;;;4975662;28;20597;-71
2022/07/27 08:42:50;;;;;;;5.10;3.93;;;23.70;99.90;;;;;;4993365;28;20534;-72
2022/07/27 08:45:18;;;;;;;4.80;3.90;;;24.20;99.90;;;;;;4993612;28;20460;-71
2022/07/27 08:47:44;;;;;;;9.67;3.50;;;24.40;99.90;;;;;;4993596;28;20179;-72
2022/07/27 08:50:23;;;;;;;4.13;3.63;;;24.60;99.90;;;;;;4994121;28;20411;-71
2022/07/27 08:53:11;;;;;;;5.77;3.90;;;24.80;99.90;;;;;;4993626;28;20869;-71
2022/07/27 08:55:38;;;;;;;6.33;3.47;;;25.50;99.90;;;;;;4993434;28;20422;-73
2022/07/27 08:58:05;;;;;;;4.10;3.50;;;25.40;99.90;;;;;;4993849;28;20426;-73
2022/07/27 09:00:32;;;;;;;6.33;3.97;;;25.80;99.90;;;;;;4992569;28;20470;-71
2022/07/27 09:02:58;;;;;;;6.07;3.73;;;26.00;99.90;;;;;;4993199;28;20442;-73
2022/07/27 09:05:24;;;;;;;4.23;3.80;;;26.10;99.90;;;;;;4993914;28;20433;-74
2022/07/27 09:07:50;;;;;;;11.40;4.30;;;26.30;99.90;;;;;;4993967;28;20421;-74
2022/07/27 09:10:33;;;;;;;3.10;2.90;;;26.70;99.90;;;;;;4993584;28;20430;-74
2022/07/27 09:13:14;;;;;;;3.27;3.07;;;26.80;99.90;;;;;;4993287;28;20434;-74
2022/07/27 09:15:45;;;;;;;7.03;3.00;;;26.70;99.90;;;;;;4993253;28;20838;-73
2022/07/27 09:18:21;;;;;;;5.83;3.30;;;26.60;99.90;;;;;;4992943;28;20426;-73
2022/07/27 09:21:10;;;;;;;3.67;3.17;;;26.80;99.90;;;;;;4991598;28;20505;-72
2022/07/27 09:23:38;;;;;;;8.40;3.80;;;26.90;99.90;;;;;;4992828;28;20952;-72
2022/07/27 09:26:11;;;;;;;4.80;3.30;;;26.90;99.90;;;;;;4992700;28;20403;-73
2022/07/27 09:28:37;;;;;;;3.33;3.03;;;26.50;99.90;;;;;;4992745;28;20915;-73
2022/07/27 09:31:11;;;;;;;9.80;3.87;;;26.20;99.90;;;;;;4992088;28;20450;-72
2022/07/27 09:33:42;;;;;;;3.30;3.00;;;26.10;99.90;;;;;;4992738;28;20191;-71
2022/07/27 09:36:08;;;;;;;3.60;3.10;;;25.80;99.90;;;;;;4991921;28;20800;-71
2022/07/27 09:38:34;;;;;;;3.53;3.23;;;25.70;99.90;;;;;;4992629;28;20423;-71
2022/07/27 09:41:00;;;;;;;3.27;3.07;;;26.10;99.90;;;;;;4991965;28;20470;-73
2022/07/27 09:43:27;;;;;;;4.13;3.40;;;26.30;99.90;;;;;;4992166;28;20234;-72
2022/07/27 09:45:53;;;;;;;3.10;2.90;;;26.70;99.90;;;;;;4992213;28;20481;-73
2022/07/27 09:48:21;;;;;;;3.53;3.00;;;27.40;99.90;;;;;;4991764;28;20461;-73
2022/07/27 09:50:59;;;;;;;2.70;2.60;;;27.90;99.90;;;;;;4991568;28;20450;-72
2022/07/27 09:53:28;;;;;;;5.27;3.70;;;28.40;99.90;;;;;;4992358;28;20406;-73
2022/07/27 09:56:01;;;;;;;4.50;2.90;;;28.80;99.90;;;;;;4992227;28;20414;-73
2022/07/27 09:58:44;;;;;;;5.20;3.93;;;29.10;99.90;;;;;;4991977;28;20796;-73
2022/07/27 10:01:16;;;;;;;3.63;3.30;;;29.60;99.90;;;;;;4991336;28;20469;-73
2022/07/27 10:03:43;;;;;;;2.30;2.20;;;29.30;99.90;;;;;;4991946;28;20411;-73
2022/07/27 10:06:10;;;;;;;3.13;2.67;;;29.90;99.90;;;;;;4991982;28;20837;-72
2022/07/27 10:08:37;;;;;;;2.80;2.60;;;29.90;99.90;;;;;;4991345;28;20417;-73
2022/07/27 10:11:03;;;;;;;4.03;2.60;;;30.00;99.90;;;;;;4991446;28;20492;-73
2022/07/27 10:13:29;;;;;;;4.70;2.80;;;29.90;99.90;;;;;;4991659;28;20419;-73
2022/07/27 10:15:54;;;;;;;3.13;2.70;;;30.10;99.90;;;;;;4991725;28;20211;-73
2022/07/27 10:18:34;;;;;;;3.90;3.70;;;30.60;99.90;;;;;;4991305;28;20659;-73
2022/07/27 10:21:07;;;;;;;5.47;3.60;;;30.80;99.90;;;;;;4991508;28;20493;-72
2022/07/27 10:23:36;;;;;;;8.33;3.03;;;30.50;99.90;;;;;;4991802;28;20920;-74
2022/07/27 10:26:24;;;;;;;3.10;2.57;;;29.80;99.90;;;;;;4991683;28;20493;-73
2022/07/27 10:28:55;;;;;;;4.07;3.03;;;28.80;99.90;;;;;;4974192;28;20838;-73
2022/07/27 10:31:27;;;;;;;3.00;2.80;;;28.70;99.90;;;;;;4992433;28;20442;-72
2022/07/27 10:33:56;;;;;;;5.43;3.00;;;28.90;99.90;;;;;;5011170;28;21040;-73
2022/07/27 10:36:24;;;;;;;3.80;2.73;;;28.70;99.90;;;;;;5010668;28;20421;-73
2022/07/27 10:38:55;;;;;;;2.50;2.40;;;28.80;99.90;;;;;;5010892;28;20445;-72
2022/07/27 10:41:23;;;;;;;6.00;2.67;;;28.40;99.90;;;;;;5010215;28;20482;-73
2022/07/27 10:44:09;;;;;;;4.03;2.83;;;28.50;99.90;;;;;;5010978;28;20409;-73
2022/07/27 10:46:41;;;;;;;3.90;2.53;;;28.80;99.90;;;;;;5010108;28;20418;-73
2022/07/27 10:49:17;;;;;;;4.83;2.53;;;29.30;99.90;;;;;;5010743;28;20424;-73
2022/07/27 10:51:43;;;;;;;3.73;2.27;;;30.10;99.90;;;;;;5010108;28;20479;-72
2022/07/27 10:54:20;;;;;;;4.23;2.57;;;30.20;99.90;;;;;;5010324;28;20417;-72
2022/07/27 10:56:47;;;;;;;7.97;2.83;;;29.80;99.90;;;;;;5011050;28;20178;-72
2022/07/27 10:59:13;;;;;;;2.87;2.67;;;29.20;99.90;;;;;;5009864;28;20444;-73
2022/07/27 11:01:56;;;;;;;4.00;2.23;;;28.80;99.90;;;;;;5009698;28;20444;-72
2022/07/27 11:04:22;;;;;;;2.40;1.80;;;28.20;99.90;;;;;;5010188;28;20599;-73
2022/07/27 11:06:55;;;;;;;5.07;2.70;;;27.80;99.90;;;;;;5010734;28;20440;-71
2022/07/27 11:09:22;;;;;;;7.77;2.67;;;27.30;99.90;;;;;;5010559;28;20413;-72
2022/07/27 11:11:48;;;;;;;3.13;2.17;;;27.00;99.90;;;;;;5009914;28;20442;-72
2022/07/27 11:14:14;;;;;;;2.40;2.20;;;26.80;99.90;;;;;;5009664;28;20513;-73
2022/07/27 11:16:39;;;;;;;4.07;2.10;;;27.10;99.90;;;;;;5010809;28;20516;-73
2022/07/27 11:19:06;;;;;;;3.10;2.40;;;27.80;99.90;;;;;;5010403;28;20640;-73
2022/07/27 11:21:34;;;;;;;2.10;2.00;;;28.60;99.90;;;;;;5009637;28;20194;-73
2022/07/27 11:24:09;;;;;;;3.53;1.97;;;29.10;99.90;;;;;;5009801;28;20418;-73
2022/07/27 11:26:41;;;;;;;2.43;2.20;;;29.30;99.90;;;;;;5010817;28;20416;-73
2022/07/27 11:29:09;;;;;;;4.00;2.57;;;29.60;99.90;;;;;;5010556;28;20942;-74
2022/07/27 11:31:36;;;;;;;3.10;2.20;;;29.50;99.90;;;;;;5009532;28;20532;-72
2022/07/27 11:34:02;;;;;;;2.17;1.97;;;29.00;99.90;;;;;;5010200;28;20941;-71
2022/07/27 11:36:38;;;;;;;2.27;1.93;;;28.50;99.90;;;;;;5010231;28;20425;-69
2022/07/27 11:39:06;;;;;;;1.87;1.73;;;28.00;99.90;;;;;;5009571;28;20409;-70
2022/07/27 11:41:34;;;;;;;2.63;2.43;;;27.50;99.90;;;;;;5009103;28;20425;-70
2022/07/27 11:44:05;;;;;;;3.23;2.03;;;27.20;99.90;;;;;;5009612;28;20983;-70
2022/07/27 11:46:33;;;;;;;2.67;1.87;;;27.00;99.90;;;;;;5009864;28;20398;-70
2022/07/27 11:49:03;;;;;;;4.43;2.10;;;26.50;99.90;;;;;;4992948;28;20410;-72
2022/07/27 11:51:29;;;;;;;2.57;2.10;;;26.40;99.90;;;;;;4991896;28;20461;-75
2022/07/27 11:53:57;;;;;;;3.77;1.77;;;26.30;99.90;;;;;;5009198;28;20494;-75
2022/07/27 11:56:24;;;;;;;3.53;1.80;;;26.40;99.90;;;;;;5009644;28;20489;-74
2022/07/27 11:59:11;;;;;;;2.93;2.57;;;26.40;99.90;;;;;;5010039;28;20448;-74
2022/07/27 12:01:40;;;;;;;6.07;2.23;;;26.40;99.90;;;;;;5009191;28;20448;-74
2022/07/27 12:04:14;;;;;;;3.63;2.30;;;26.30;99.90;;;;;;5009855;28;20406;-75
2022/07/27 12:06:42;;;;;;;3.27;1.73;;;26.00;99.90;;;;;;5009585;28;20405;-75
2022/07/27 12:09:11;;;;;;;3.03;2.63;;;26.00;99.90;;;;;;5010876;28;20451;-74
2022/07/27 12:11:45;;;;;;;2.40;2.20;;;26.10;99.90;;;;;;4992799;28;20433;-75
2022/07/27 12:14:12;;;;;;;1.97;1.87;;;26.20;99.90;;;;;;5011832;28;20543;-74
2022/07/27 12:16:38;;;;;;;2.30;1.63;;;26.30;99.90;;;;;;4996642;28;20432;-74
2022/07/27 12:19:03;;;;;;;2.30;2.10;;;26.60;99.90;;;;;;4996322;28;20417;-74
2022/07/27 12:21:29;;;;;;;2.90;2.00;;;27.10;99.90;;;;;;5012462;28;20198;-75
2022/07/27 12:23:54;;;;;;;1.83;1.73;;;27.30;99.90;;;;;;5013564;28;20171;-75
2022/07/27 12:26:21;;;;;;;1.60;1.50;;;27.40;99.90;;;;;;5012847;28;20594;-75
2022/07/27 12:29:07;;;;;;;2.10;1.63;;;27.40;99.90;;;;;;4996098;28;20277;-75
2022/07/27 12:31:34;;;;;;;3.17;1.50;;;27.40;99.90;;;;;;5012513;28;20872;-75
2022/07/27 12:34:00;;;;;;;1.83;1.27;;;27.30;99.90;;;;;;5012739;28;20504;-75
2022/07/27 12:36:26;;;;;;;2.40;1.33;;;27.20;99.90;;;;;;5013257;28;20406;-75
2022/07/27 12:38:52;;;;;;;1.50;1.40;;;27.00;99.90;;;;;;5013512;28;20933;-75
2022/07/27 12:41:29;;;;;;;5.77;1.80;;;26.90;99.90;;;;;;5011091;28;20684;-74
2022/07/27 12:44:08;;;;;;;1.40;1.30;;;26.80;99.90;;;;;;5012800;28;20441;-74
2022/07/27 12:46:49;;;;;;;2.83;1.57;;;26.60;99.90;;;;;;5002658;28;20453;-75
2022/07/27 12:49:15;;;;;;;3.80;1.40;;;26.50;99.90;;;;;;4989271;28;20426;-76
2022/07/27 12:51:40;;;;;;;3.10;1.57;;;26.40;99.90;;;;;;4988835;28;20457;-74
2022/07/27 12:54:06;;;;;;;2.10;1.97;;;26.50;99.90;;;;;;4989385;28;20238;-75
2022/07/27 12:56:31;;;;;;;1.30;1.20;;;26.60;99.90;;;;;;4990802;28;20739;-75
2022/07/27 12:58:59;;;;;;;1.80;1.70;;;26.70;99.90;;;;;;4993036;28;20198;-75
2022/07/27 13:01:24;;;;;;;2.20;1.40;;;26.50;99.90;;;;;;4991384;28;20597;-75
2022/07/27 13:03:50;;;;;;;2.97;1.50;;;26.70;99.90;;;;;;4990883;28;20438;-75
2022/07/27 13:06:15;;;;;;;1.80;1.57;;;27.10;99.90;;;;;;4990181;28;20179;-77
2022/07/27 13:08:41;;;;;;;2.60;1.77;;;27.10;99.90;;;;;;4988817;28;20191;-74
2022/07/27 13:11:07;;;;;;;2.03;1.93;;;27.10;99.90;;;;;;4987253;28;20272;-74
2022/07/27 13:13:33;;;;;;;1.93;1.70;;;27.10;99.90;;;;;;4986895;28;20438;-74
2022/07/27 13:15:58;;;;;;;1.83;1.73;;;27.10;99.90;;;;;;4989148;28;20207;-74
2022/07/27 13:18:24;;;;;;;1.60;1.43;;;27.00;99.90;;;;;;4989843;28;20187;-75
2022/07/27 13:20:50;;;;;;;1.53;1.43;;;27.00;99.90;;;;;;4989450;28;20432;-74
2022/07/27 13:23:16;;;;;;;5.60;1.97;;;26.90;99.90;;;;;;4989511;28;20592;-74
2022/07/27 13:25:41;;;;;;;1.67;1.57;;;27.00;99.90;;;;;;4970505;28;20422;-74
2022/07/27 13:28:07;;;;;;;4.80;2.47;;;26.60;99.90;;;;;;4990391;28;20184;-74
2022/07/27 13:30:32;;;;;;;2.03;1.83;;;26.60;99.90;;;;;;4988763;28;20612;-73
2022/07/27 13:32:59;;;;;;;2.13;1.70;;;26.30;99.90;;;;;;4986826;28;20226;-74
2022/07/27 13:35:25;;;;;;;2.70;1.90;;;26.10;99.90;;;;;;4986678;28;20270;-75
2022/07/27 13:37:50;;;;;;;1.90;1.57;;;25.90;99.90;;;;;;4988166;28;20502;-75
2022/07/27 13:40:16;;;;;;;3.47;1.40;;;26.00;99.90;;;;;;4989554;28;20569;-74
2022/07/27 13:42:41;;;;;;;2.93;2.00;;;26.20;99.90;;;;;;4988603;28;20203;-74
2022/07/27 13:45:08;;;;;;;2.17;1.60;;;26.30;99.90;;;;;;4988998;28;20176;-74
2022/07/27 13:47:33;;;;;;;1.43;1.33;;;26.30;99.90;;;;;;4989576;28;20183;-74
2022/07/27 13:49:59;;;;;;;1.40;1.30;;;26.70;99.90;;;;;;4988677;28;20806;-74
2022/07/27 13:52:24;;;;;;;2.70;2.37;;;26.80;99.90;;;;;;4986412;28;20207;-74
2022/07/27 13:54:50;;;;;;;2.63;1.40;;;26.80;99.90;;;;;;4969858;28;20686;-74
2022/07/27 13:57:16;;;;;;;2.70;1.73;;;26.80;99.90;;;;;;4987623;28;20294;-74
2022/07/27 13:59:41;;;;;;;1.73;1.63;;;26.90;99.90;;;;;;4988731;28;20214;-74
2022/07/27 14:02:07;;;;;;;4.03;1.53;;;26.90;99.90;;;;;;4988818;28;20281;-74
2022/07/27 14:04:34;;;;;;;4.30;1.90;;;26.90;99.90;;;;;;4988912;28;20262;-75
2022/07/27 14:07:00;;;;;;;3.10;1.70;;;26.80;99.90;;;;;;4989042;28;20414;-74
2022/07/27 14:10:30;;;;;;;2.40;1.70;;;26.80;99.90;;;;;;4988709;28;20411;-74
2022/07/27 14:12:11;;;;;;;1.57;1.47;;;26.70;99.90;;;;;;4988108;28;20477;-74
2022/07/27 14:14:37;;;;;;;2.20;1.73;;;26.70;99.90;;;;;;4989067;28;20446;-74
2022/07/27 14:17:03;;;;;;;1.47;1.30;;;26.50;99.90;;;;;;4988720;28;20183;-74
2022/07/27 14:19:29;;;;;;;3.40;1.57;;;26.10;99.90;;;;;;4987609;28;20211;-74